createdAt,value
2017-12-17T00:00:51.810Z,2.10
2017-12-17T00:03:20.046Z,2.10
2017-12-17T00:05:47.514Z,2.10
2017-12-17T00:08:14.987Z,2.10
2017-12-17T00:10:43.226Z,2.20
2017-12-17T00:13:10.704Z,2.10
2017-12-17T00:15:38.195Z,2.20
2017-12-17T00:18:06.423Z,2.20
2017-12-17T00:20:33.906Z,2.20
2017-12-17T00:23:01.374Z,2.30
2017-12-17T00:25:29.630Z,2.40
2017-12-17T00:27:57.089Z,2.40
2017-12-17T00:30:25.339Z,2.50
2017-12-17T00:32:52.798Z,2.50
2017-12-17T00:35:20.275Z,2.40
2017-12-17T00:37:47.761Z,2.50
2017-12-17T00:40:15.218Z,2.50
2017-12-17T00:42:42.699Z,2.50
2017-12-17T00:45:10.195Z,2.50
2017-12-17T00:47:37.676Z,2.50
2017-12-17T00:50:05.919Z,2.60
2017-12-17T00:52:33.406Z,2.60
2017-12-17T00:55:01.670Z,2.60
2017-12-17T00:57:29.227Z,2.60
2017-12-17T00:59:56.723Z,2.60
2017-12-17T01:02:24.175Z,2.60
2017-12-17T01:04:51.663Z,2.60
2017-12-17T01:07:19.135Z,2.60
2017-12-17T01:09:46.595Z,2.60
2017-12-17T01:12:14.071Z,2.60
2017-12-17T01:14:42.298Z,2.50
2017-12-17T01:17:09.779Z,2.50
2017-12-17T01:19:37.239Z,2.50
2017-12-17T01:22:04.715Z,2.50
2017-12-17T01:24:32.966Z,2.50
2017-12-17T01:27:00.450Z,2.60
2017-12-17T01:29:28.678Z,2.50
2017-12-17T01:31:56.147Z,2.50
2017-12-17T01:34:23.625Z,2.50
2017-12-17T01:36:51.114Z,2.60
2017-12-17T01:39:19.336Z,2.60
2017-12-17T01:41:48.436Z,2.60
2017-12-17T01:44:15.898Z,2.60
2017-12-17T01:46:43.369Z,2.60
2017-12-17T01:49:10.851Z,2.60
2017-12-17T01:51:39.071Z,2.60
2017-12-17T01:54:06.535Z,2.50
2017-12-17T01:56:34.052Z,2.60
2017-12-17T01:59:01.527Z,2.60
2017-12-17T02:01:29.007Z,2.60
2017-12-17T02:03:56.498Z,2.60
2017-12-17T02:06:24.734Z,2.60
2017-12-17T02:08:52.190Z,2.60
2017-12-17T02:11:19.669Z,2.50
2017-12-17T02:13:47.174Z,2.50
2017-12-17T02:16:14.647Z,2.40
2017-12-17T02:18:42.118Z,2.40
2017-12-17T02:21:09.571Z,2.50
2017-12-17T02:23:37.051Z,2.40
2017-12-17T02:26:04.515Z,2.40
2017-12-17T02:28:32.767Z,2.30
2017-12-17T02:31:00.262Z,2.30
2017-12-17T02:33:28.490Z,2.20
2017-12-17T02:35:55.976Z,2.20
2017-12-17T02:38:24.199Z,2.10
2017-12-17T02:40:51.691Z,2.10
2017-12-17T02:43:19.178Z,2.00
2017-12-17T02:45:47.428Z,1.90
2017-12-17T02:48:14.888Z,1.90
2017-12-17T02:50:42.382Z,1.80
2017-12-17T02:53:09.854Z,1.80
2017-12-17T02:55:37.363Z,1.70
2017-12-17T02:58:04.860Z,1.60
2017-12-17T03:00:32.326Z,1.50
2017-12-17T03:02:59.843Z,1.50
2017-12-17T03:05:28.127Z,1.50
2017-12-17T03:07:56.352Z,1.50
2017-12-17T03:10:23.826Z,1.50
2017-12-17T03:12:51.298Z,1.50
2017-12-17T03:15:18.781Z,1.40
2017-12-17T03:17:46.247Z,1.30
2017-12-17T03:20:13.738Z,1.30
2017-12-17T03:22:41.198Z,1.20
2017-12-17T03:25:08.677Z,1.20
2017-12-17T03:27:36.186Z,1.20
2017-12-17T03:30:03.651Z,1.20
2017-12-17T03:32:31.141Z,1.20
2017-12-17T03:34:58.602Z,1.20
2017-12-17T03:37:26.078Z,1.10
2017-12-17T03:39:54.338Z,1.00
2017-12-17T03:42:21.815Z,1.00
2017-12-17T03:44:50.034Z,0.90
2017-12-17T03:47:17.531Z,0.90
2017-12-17T03:49:45.799Z,1.00
2017-12-17T03:52:13.262Z,1.00
2017-12-17T03:54:41.495Z,1.10
2017-12-17T03:57:08.990Z,1.10
2017-12-17T03:59:36.463Z,1.20
2017-12-17T04:02:04.698Z,1.20
2017-12-17T04:04:32.185Z,1.20
2017-12-17T04:07:00.428Z,1.20
2017-12-17T04:09:27.906Z,1.20
2017-12-17T04:11:55.382Z,1.20
2017-12-17T04:14:22.877Z,1.10
2017-12-17T04:16:50.338Z,1.10
2017-12-17T04:19:17.832Z,1.20
2017-12-17T04:21:46.055Z,1.20
2017-12-17T04:24:13.534Z,1.20
2017-12-17T04:26:41.011Z,1.20
2017-12-17T04:29:08.493Z,1.30
2017-12-17T04:31:36.747Z,1.30
2017-12-17T04:34:04.203Z,1.30
2017-12-17T04:36:31.679Z,1.30
2017-12-17T04:38:59.931Z,1.30
2017-12-17T04:41:28.184Z,1.30
2017-12-17T04:43:55.662Z,1.30
2017-12-17T04:46:23.155Z,1.20
2017-12-17T04:48:51.387Z,1.10
2017-12-17T04:51:18.867Z,1.10
2017-12-17T04:53:46.336Z,1.10
2017-12-17T04:56:14.591Z,1.00
2017-12-17T04:58:42.068Z,1.00
2017-12-17T05:01:10.315Z,1.00
2017-12-17T05:03:37.774Z,1.00
2017-12-17T05:06:05.254Z,0.90
2017-12-17T05:08:33.495Z,0.90
2017-12-17T05:11:00.972Z,0.90
2017-12-17T05:13:28.447Z,1.00
2017-12-17T05:15:56.679Z,0.90
2017-12-17T05:18:24.170Z,0.90
2017-12-17T05:20:52.402Z,0.90
2017-12-17T05:23:19.883Z,0.90
2017-12-17T05:25:47.343Z,0.90
2017-12-17T05:28:15.163Z,0.90
2017-12-17T05:30:42.655Z,0.90
2017-12-17T05:33:10.126Z,0.90
2017-12-17T05:35:38.383Z,0.90
2017-12-17T05:38:05.855Z,0.90
2017-12-17T05:40:33.334Z,0.80
2017-12-17T05:43:00.805Z,0.90
2017-12-17T05:45:28.278Z,0.90
2017-12-17T05:47:55.771Z,1.00
2017-12-17T05:50:23.242Z,1.00
2017-12-17T05:52:51.513Z,1.20
2017-12-17T05:55:18.996Z,1.10
2017-12-17T05:57:46.482Z,1.30
2017-12-17T06:00:13.951Z,1.30
2017-12-17T06:02:41.447Z,1.30
2017-12-17T06:05:09.678Z,1.30
2017-12-17T06:07:37.143Z,1.30
2017-12-17T06:10:04.620Z,1.40
2017-12-17T06:12:32.098Z,1.40
2017-12-17T06:15:00.343Z,1.40
2017-12-17T06:17:27.810Z,1.40
2017-12-17T06:19:55.323Z,1.40
2017-12-17T06:22:22.790Z,1.40
2017-12-17T06:24:50.259Z,1.40
2017-12-17T06:27:17.748Z,1.40
2017-12-17T06:29:45.991Z,1.30
2017-12-17T06:32:13.467Z,1.30
2017-12-17T06:34:42.738Z,1.30
2017-12-17T06:37:10.197Z,1.30
2017-12-17T06:39:37.685Z,1.20
2017-12-17T06:42:05.143Z,1.10
2017-12-17T06:44:32.611Z,1.00
2017-12-17T06:47:00.863Z,1.00
2017-12-17T06:49:28.322Z,1.00
2017-12-17T06:51:55.806Z,0.90
2017-12-17T06:54:24.035Z,1.10
2017-12-17T06:56:51.531Z,1.10
2017-12-17T06:59:19.843Z,1.10
2017-12-17T07:01:47.318Z,1.10
2017-12-17T07:04:14.787Z,1.10
2017-12-17T07:06:42.276Z,1.10
2017-12-17T07:09:09.739Z,1.20
2017-12-17T07:11:37.993Z,1.20
2017-12-17T07:14:05.495Z,1.20
2017-12-17T07:16:32.964Z,1.20
2017-12-17T07:19:00.444Z,1.30
2017-12-17T07:21:27.993Z,1.30
2017-12-17T07:23:56.181Z,1.30
2017-12-17T07:26:23.717Z,1.30
2017-12-17T07:28:51.942Z,1.40
2017-12-17T07:31:20.185Z,1.30
2017-12-17T07:33:47.670Z,1.30
2017-12-17T07:36:16.195Z,1.40
2017-12-17T07:38:43.653Z,1.40
2017-12-17T07:41:11.135Z,1.40
2017-12-17T07:43:38.916Z,1.40
2017-12-17T07:46:06.398Z,1.40
2017-12-17T07:48:34.690Z,1.40
2017-12-17T07:51:02.163Z,1.40
2017-12-17T07:53:29.874Z,1.40
2017-12-17T07:55:57.359Z,1.40
2017-12-17T07:58:24.839Z,1.40
2017-12-17T08:00:52.405Z,1.40
2017-12-17T08:03:19.889Z,1.50
2017-12-17T08:05:47.355Z,1.50
2017-12-17T08:08:15.167Z,1.40
2017-12-17T08:10:42.631Z,1.40
2017-12-17T08:13:10.223Z,1.50
2017-12-17T08:15:38.503Z,1.50
2017-12-17T08:18:05.974Z,1.50
2017-12-17T08:20:33.544Z,1.50
2017-12-17T08:23:01.999Z,1.50
2017-12-17T08:25:29.566Z,1.50
2017-12-17T08:27:57.218Z,1.60
2017-12-17T08:30:24.744Z,1.50
2017-12-17T08:32:52.198Z,1.60
2017-12-17T08:35:19.677Z,1.70
2017-12-17T08:37:47.154Z,1.60
2017-12-17T08:40:14.649Z,1.70
2017-12-17T08:42:42.127Z,1.70
2017-12-17T08:45:09.591Z,1.70
2017-12-17T08:47:37.061Z,1.80
2017-12-17T08:50:04.518Z,1.80
2017-12-17T08:52:31.998Z,1.80
2017-12-17T08:54:59.466Z,1.80
2017-12-17T08:57:27.704Z,1.90
2017-12-17T08:59:55.198Z,1.90
2017-12-17T09:02:23.430Z,2.00
2017-12-17T09:04:50.894Z,2.00
2017-12-17T09:07:18.395Z,2.00
2017-12-17T09:09:46.634Z,2.00
2017-12-17T09:12:14.106Z,2.00
2017-12-17T09:14:42.374Z,2.00
2017-12-17T09:17:10.602Z,2.00
2017-12-17T09:19:38.077Z,2.00
2017-12-17T09:22:05.550Z,2.00
2017-12-17T09:24:33.009Z,2.10
2017-12-17T09:27:00.478Z,2.20
2017-12-17T09:29:27.947Z,2.10
2017-12-17T09:31:56.296Z,2.10
2017-12-17T09:34:23.979Z,2.10
2017-12-17T09:36:52.215Z,2.10
2017-12-17T09:39:19.691Z,2.10
2017-12-17T09:41:48.722Z,2.10
2017-12-17T09:44:16.972Z,2.20
2017-12-17T09:46:44.439Z,2.20
2017-12-17T09:49:13.089Z,2.10
2017-12-17T09:51:40.554Z,2.10
2017-12-17T09:54:08.139Z,2.20
2017-12-17T09:56:36.526Z,2.30
2017-12-17T09:59:04.023Z,2.20
2017-12-17T10:01:31.502Z,2.40
2017-12-17T10:03:59.014Z,2.40
2017-12-17T10:06:26.503Z,2.50
2017-12-17T10:08:53.995Z,2.60
2017-12-17T10:11:22.219Z,2.50
2017-12-17T10:13:49.695Z,2.50
2017-12-17T10:16:17.176Z,2.60
2017-12-17T10:18:44.634Z,2.60
2017-12-17T10:21:12.907Z,2.60
2017-12-17T10:23:40.368Z,2.50
2017-12-17T10:26:07.870Z,2.50
2017-12-17T10:28:35.386Z,2.60
2017-12-17T10:31:02.841Z,2.70
2017-12-17T10:33:31.074Z,2.80
2017-12-17T10:35:58.549Z,2.80
2017-12-17T10:38:26.090Z,2.80
2017-12-17T10:40:53.587Z,2.70
2017-12-17T10:43:21.051Z,2.60
2017-12-17T10:45:50.041Z,2.70
2017-12-17T10:48:18.267Z,2.70
2017-12-17T10:50:45.751Z,2.70
2017-12-17T10:53:13.316Z,2.70
2017-12-17T10:55:40.841Z,2.70
2017-12-17T10:58:08.333Z,2.60
2017-12-17T11:00:35.802Z,2.50
2017-12-17T11:03:04.023Z,2.60
2017-12-17T11:05:31.515Z,2.50
2017-12-17T11:07:59.007Z,2.40
2017-12-17T11:10:26.490Z,2.40
2017-12-17T11:12:53.983Z,2.40
2017-12-17T11:15:21.481Z,2.40
2017-12-17T11:17:49.719Z,2.40
2017-12-17T11:20:17.191Z,2.40
2017-12-17T11:22:44.650Z,2.50
2017-12-17T11:25:12.168Z,2.40
2017-12-17T11:27:39.644Z,2.40
2017-12-17T11:30:07.117Z,2.40
2017-12-17T11:32:34.583Z,2.40
2017-12-17T11:35:02.838Z,2.30
2017-12-17T11:37:30.330Z,2.30
2017-12-17T11:39:58.040Z,2.10
2017-12-17T11:42:25.572Z,2.10
2017-12-17T11:44:53.032Z,2.10
2017-12-17T11:47:20.550Z,2.20
2017-12-17T11:49:48.818Z,2.40
2017-12-17T11:52:16.290Z,2.40
2017-12-17T11:54:44.554Z,2.50
2017-12-17T11:57:12.802Z,2.40
2017-12-17T11:59:40.297Z,2.40
2017-12-17T12:02:08.548Z,2.50
2017-12-17T12:04:36.028Z,2.50
2017-12-17T12:07:05.002Z,2.40
2017-12-17T12:09:33.839Z,2.40
2017-12-17T12:12:02.290Z,2.40
2017-12-17T12:14:29.755Z,2.40
2017-12-17T12:16:57.210Z,2.40
2017-12-17T12:19:24.700Z,2.40
2017-12-17T12:21:53.625Z,2.40
2017-12-17T12:24:21.887Z,2.40
2017-12-17T12:26:51.168Z,2.50
2017-12-17T12:29:18.715Z,2.60
2017-12-17T12:31:46.192Z,2.60
2017-12-17T12:34:13.981Z,2.50
2017-12-17T12:36:41.474Z,2.60
2017-12-17T12:39:08.947Z,2.60
2017-12-17T12:41:38.846Z,2.70
2017-12-17T12:44:06.325Z,2.80
2017-12-17T12:46:34.989Z,2.70
2017-12-17T12:49:02.498Z,2.60
2017-12-17T12:51:30.749Z,2.60
2017-12-17T12:53:58.215Z,2.60
2017-12-17T12:56:25.685Z,2.70
2017-12-17T12:58:53.187Z,2.80
2017-12-17T13:01:20.647Z,2.80
2017-12-17T13:03:48.195Z,2.80
2017-12-17T13:06:15.777Z,2.80
2017-12-17T13:08:43.279Z,2.90
2017-12-17T13:11:10.745Z,3.00
2017-12-17T13:13:39.395Z,3.00
2017-12-17T13:16:06.883Z,2.90
2017-12-17T13:18:35.139Z,3.00
2017-12-17T13:21:02.601Z,3.00
2017-12-17T13:23:30.075Z,3.00
2017-12-17T13:25:58.330Z,2.80
2017-12-17T13:28:25.829Z,2.80
2017-12-17T13:30:53.287Z,2.80
2017-12-17T13:33:20.761Z,2.80
2017-12-17T13:35:48.257Z,2.80
2017-12-17T13:38:15.722Z,2.80
2017-12-17T13:40:43.219Z,2.80
2017-12-17T13:43:10.708Z,2.90
2017-12-17T13:45:38.178Z,2.90
2017-12-17T13:48:05.650Z,3.00
2017-12-17T13:50:33.113Z,3.00
2017-12-17T13:53:01.196Z,3.00
2017-12-17T13:55:29.454Z,2.90
2017-12-17T13:57:56.942Z,2.90
2017-12-17T14:00:24.428Z,2.90
2017-12-17T14:02:51.908Z,2.80
2017-12-17T14:05:19.391Z,2.90
2017-12-17T14:07:47.651Z,3.00
2017-12-17T14:10:15.103Z,3.00
2017-12-17T14:12:42.596Z,3.00
2017-12-17T14:15:10.078Z,3.00
2017-12-17T14:17:37.581Z,3.10
2017-12-17T14:20:05.107Z,3.00
2017-12-17T14:22:32.571Z,3.00
2017-12-17T14:25:00.053Z,2.90
2017-12-17T14:27:27.539Z,2.90
2017-12-17T14:29:55.005Z,3.00
2017-12-17T14:32:22.514Z,3.00
2017-12-17T14:34:50.038Z,3.00
2017-12-17T14:37:17.461Z,2.90
2017-12-17T14:39:45.699Z,2.90
2017-12-17T14:42:13.178Z,2.90
2017-12-17T14:44:40.655Z,2.90
2017-12-17T14:47:08.164Z,3.00
2017-12-17T14:49:35.628Z,3.00
2017-12-17T14:52:03.099Z,2.90
2017-12-17T14:54:31.321Z,3.00
2017-12-17T14:56:58.839Z,3.00
2017-12-17T14:59:27.090Z,3.00
2017-12-17T15:01:54.551Z,3.00
2017-12-17T15:04:22.026Z,3.00
2017-12-17T15:06:50.278Z,3.00
2017-12-17T15:09:17.764Z,2.90
2017-12-17T15:11:46.012Z,3.00
2017-12-17T15:14:13.497Z,3.00
2017-12-17T15:16:41.743Z,2.90
2017-12-17T15:19:09.228Z,2.90
2017-12-17T15:21:37.478Z,2.90
2017-12-17T15:24:04.946Z,2.90
2017-12-17T15:26:33.206Z,3.00
2017-12-17T15:29:00.688Z,3.00
2017-12-17T15:31:28.925Z,3.00
2017-12-17T15:33:56.407Z,3.00
2017-12-17T15:36:23.886Z,3.00
2017-12-17T15:38:52.135Z,3.10
2017-12-17T15:41:19.622Z,3.10
2017-12-17T15:43:47.114Z,3.10
2017-12-17T15:46:14.578Z,3.10
2017-12-17T15:48:42.071Z,3.10
2017-12-17T15:51:10.350Z,3.10
2017-12-17T15:53:38.585Z,3.10
2017-12-17T15:56:06.056Z,3.10
2017-12-17T15:58:33.529Z,3.10
2017-12-17T16:01:01.814Z,3.10
2017-12-17T16:03:30.085Z,3.10
2017-12-17T16:05:57.699Z,3.10
2017-12-17T16:08:25.173Z,3.10
2017-12-17T16:10:52.639Z,3.10
2017-12-17T16:13:20.172Z,3.10
2017-12-17T16:15:47.636Z,3.10
2017-12-17T16:18:15.117Z,3.20
2017-12-17T16:20:42.607Z,3.20
2017-12-17T16:23:10.871Z,3.20
2017-12-17T16:25:39.126Z,3.30
2017-12-17T16:28:06.592Z,3.30
2017-12-17T16:30:34.854Z,3.30
2017-12-17T16:33:02.316Z,3.30
2017-12-17T16:35:30.568Z,3.20
2017-12-17T16:37:58.139Z,3.30
2017-12-17T16:40:25.615Z,3.20
2017-12-17T16:42:53.099Z,3.20
2017-12-17T16:45:20.601Z,3.20
2017-12-17T16:47:48.077Z,3.20
2017-12-17T16:50:15.587Z,3.20
2017-12-17T16:52:43.074Z,3.30
2017-12-17T16:55:10.685Z,3.30
2017-12-17T16:57:38.168Z,3.20
2017-12-17T17:00:05.632Z,3.20
2017-12-17T17:02:33.120Z,3.20
2017-12-17T17:05:00.623Z,3.20
2017-12-17T17:07:28.103Z,3.20
2017-12-17T17:09:55.593Z,3.20
2017-12-17T17:12:23.050Z,3.20
2017-12-17T17:14:50.553Z,3.20
2017-12-17T17:17:21.776Z,3.30
2017-12-17T17:19:49.332Z,3.30
2017-12-17T17:22:17.566Z,3.30
2017-12-17T17:24:45.063Z,3.30
2017-12-17T17:27:13.304Z,3.30
2017-12-17T17:29:40.780Z,3.30
2017-12-17T17:32:09.019Z,3.30
2017-12-17T17:34:36.517Z,3.30
2017-12-17T17:37:04.740Z,3.40
2017-12-17T17:39:32.219Z,3.40
2017-12-17T17:41:59.697Z,3.40
2017-12-17T17:44:27.298Z,3.40
2017-12-17T17:46:54.792Z,3.40
2017-12-17T17:49:22.286Z,3.40
2017-12-17T17:51:50.575Z,3.40
2017-12-17T17:54:18.043Z,3.40
2017-12-17T17:56:45.528Z,3.40
2017-12-17T17:59:13.020Z,3.50
2017-12-17T18:01:40.478Z,3.50
2017-12-17T18:04:08.894Z,3.40
2017-12-17T18:06:36.386Z,3.50
2017-12-17T18:09:03.961Z,3.50
2017-12-17T18:11:31.431Z,3.50
2017-12-17T18:13:59.671Z,3.40
2017-12-17T18:16:27.182Z,3.40
2017-12-17T18:18:54.667Z,3.40
2017-12-17T18:21:22.156Z,3.50
2017-12-17T18:23:50.428Z,3.50
2017-12-17T18:26:17.916Z,3.40
2017-12-17T18:28:46.157Z,3.40
2017-12-17T18:31:13.649Z,3.40
2017-12-17T18:33:41.879Z,3.30
2017-12-17T18:36:09.365Z,3.30
2017-12-17T18:38:36.830Z,3.30
2017-12-17T18:41:05.079Z,3.30
2017-12-17T18:43:32.546Z,3.20
2017-12-17T18:46:00.116Z,3.30
2017-12-17T18:48:28.354Z,3.30
2017-12-17T18:50:55.862Z,3.20
2017-12-17T18:53:24.090Z,3.30
2017-12-17T18:55:51.585Z,3.30
2017-12-17T18:58:19.807Z,3.30
2017-12-17T19:00:47.288Z,3.20
2017-12-17T19:03:15.139Z,3.30
2017-12-17T19:05:42.615Z,3.30
2017-12-17T19:08:10.080Z,3.30
2017-12-17T19:10:37.571Z,3.30
2017-12-17T19:13:05.034Z,3.30
2017-12-17T19:15:33.263Z,3.30
2017-12-17T19:18:00.726Z,3.30
2017-12-17T19:20:28.224Z,3.30
2017-12-17T19:22:55.710Z,3.30
2017-12-17T19:25:23.179Z,3.40
2017-12-17T19:27:50.662Z,3.30
2017-12-17T19:30:18.936Z,3.40
2017-12-17T19:32:46.406Z,3.40
2017-12-17T19:35:14.643Z,3.40
2017-12-17T19:37:42.150Z,3.40
2017-12-17T19:40:09.614Z,3.40
2017-12-17T19:42:37.862Z,3.40
2017-12-17T19:45:06.142Z,3.40
2017-12-17T19:47:34.391Z,3.40
2017-12-17T19:50:03.412Z,3.40
2017-12-17T19:52:31.650Z,3.40
2017-12-17T19:54:59.123Z,3.40
2017-12-17T19:57:26.626Z,3.40
2017-12-17T19:59:54.116Z,3.40
2017-12-17T20:02:21.586Z,3.40
2017-12-17T20:04:49.087Z,3.40
2017-12-17T20:09:51.568Z,3.40
2017-12-17T20:12:19.042Z,3.40
2017-12-17T20:14:46.516Z,3.40
2017-12-17T20:17:14.000Z,3.40
2017-12-17T20:19:41.487Z,3.40
2017-12-17T20:22:09.888Z,3.50
2017-12-17T20:24:37.347Z,3.40
2017-12-17T20:27:05.803Z,3.40
2017-12-17T20:29:34.090Z,3.40
2017-12-17T20:32:01.571Z,3.40
2017-12-17T20:34:29.034Z,3.40
2017-12-17T20:36:56.500Z,3.50
2017-12-17T20:39:23.992Z,3.40
2017-12-17T20:41:51.463Z,3.40
2017-12-17T20:44:20.021Z,3.50
2017-12-17T20:46:48.313Z,3.40
2017-12-17T20:49:16.928Z,3.40
2017-12-17T20:51:44.395Z,3.40
2017-12-17T20:54:12.496Z,3.40
2017-12-17T20:56:40.767Z,3.40
2017-12-17T20:59:08.254Z,3.40
2017-12-17T21:01:36.635Z,3.40
2017-12-17T21:04:05.512Z,3.40
2017-12-17T21:06:33.082Z,3.40
2017-12-17T21:09:02.255Z,3.40
2017-12-17T21:11:30.834Z,3.40
2017-12-17T21:13:58.284Z,3.40
2017-12-17T21:16:26.428Z,3.40
2017-12-17T21:18:53.942Z,3.40
2017-12-17T21:21:22.195Z,3.40
2017-12-17T21:23:49.650Z,3.40
2017-12-17T21:26:17.955Z,3.40
2017-12-17T21:28:46.203Z,3.30
2017-12-17T21:31:13.682Z,3.40
2017-12-17T21:33:41.926Z,3.30
2017-12-17T21:36:09.423Z,3.30
2017-12-17T21:38:37.674Z,3.30
2017-12-17T21:41:05.177Z,3.30
2017-12-17T21:43:32.671Z,3.30
2017-12-17T21:46:00.142Z,3.30
2017-12-17T21:48:27.621Z,3.20
2017-12-17T21:50:55.859Z,3.10
2017-12-17T21:53:23.334Z,3.10
2017-12-17T21:55:50.845Z,3.10
2017-12-17T21:58:18.298Z,3.00
2017-12-17T22:00:45.801Z,2.90
2017-12-17T22:03:13.290Z,2.90
2017-12-17T22:05:41.515Z,2.70
2017-12-17T22:08:09.459Z,2.70
2017-12-17T22:10:36.921Z,2.70
2017-12-17T22:13:04.422Z,2.60
2017-12-17T22:15:32.651Z,2.30
2017-12-17T22:18:00.142Z,2.30
2017-12-17T22:20:27.598Z,2.20
2017-12-17T22:22:55.078Z,2.10
2017-12-17T22:25:23.313Z,2.00
2017-12-17T22:27:51.946Z,2.00
2017-12-17T22:30:20.191Z,2.00
2017-12-17T22:32:47.670Z,2.00
2017-12-17T22:35:15.896Z,1.90
2017-12-17T22:37:43.378Z,1.90
2017-12-17T22:40:10.850Z,1.90
2017-12-17T22:42:38.299Z,1.80
2017-12-17T22:45:05.792Z,1.80
2017-12-17T22:47:33.246Z,1.80
2017-12-17T22:50:00.754Z,1.70
2017-12-17T22:52:28.210Z,1.80
2017-12-17T22:54:55.686Z,1.70
2017-12-17T22:57:23.915Z,1.70
2017-12-17T22:59:51.403Z,1.70
2017-12-17T23:02:18.875Z,1.70
2017-12-17T23:04:47.120Z,1.70
2017-12-17T23:07:14.582Z,1.70
2017-12-17T23:09:42.835Z,1.60
2017-12-17T23:12:10.296Z,1.60
2017-12-17T23:14:37.782Z,1.60
2017-12-17T23:17:05.270Z,1.60
2017-12-17T23:19:32.751Z,1.60
2017-12-17T23:22:00.239Z,1.50
2017-12-17T23:24:27.707Z,1.50
2017-12-17T23:26:55.189Z,1.40
2017-12-17T23:29:22.691Z,1.30
2017-12-17T23:31:50.171Z,1.20
2017-12-17T23:34:17.644Z,1.00
2017-12-17T23:36:45.891Z,0.80
2017-12-17T23:39:13.410Z,0.80
2017-12-17T23:41:40.865Z,0.70
2017-12-17T23:44:08.343Z,0.70
2017-12-17T23:46:35.823Z,0.60
2017-12-17T23:49:03.299Z,0.60
2017-12-17T23:51:30.784Z,0.60
2017-12-17T23:53:58.263Z,0.60
2017-12-17T23:56:25.765Z,0.50
2017-12-17T23:58:53.219Z,0.50
